Malmstrom A F B, Montana
Current Conditions -  °F | °C
As of 6:56 AM on Thursday 27 Nov 2014 (Local Time) from KGFA Reporting Station
Clear Clear  
Wind Chill: -2°   Ceiling: Unl
Heat Index:   Visibility: 10mi
Dew Point:   Wind: 14mph
Humidity: 79%   Direction: 190°S
Pressure: 29.82"   Gusts: NA
Location:  47.5102°N, 111.1959°W
Report Text: KGFA 271356Z AUTO 19012KT 10SM CLR 03/00 A2982 RMK AO2 SLP129 T00301003
Loading
Personal Weather Stations






























Interactive Weather Map New forecast layout! Learn more

10-Day Weather Forecast

Advertisements
Track Severe Weather on mobile